sensor_id;sensor_type;location;lat;lon;timestamp;pressure;altitude;pressure_sealevel;temperature;humidity
61757;BME280;57225;61.460;24.060;2023-04-21T00:01:03;100964.19;;;6.29;97.53
61757;BME280;57225;61.460;24.060;2023-04-21T00:03:51;100954.28;;;6.28;97.57
61757;BME280;57225;61.460;24.060;2023-04-21T00:06:35;100962.78;;;6.35;96.74
61757;BME280;57225;61.460;24.060;2023-04-21T00:09:21;100956.34;;;6.31;96.51
61757;BME280;57225;61.460;24.060;2023-04-21T00:12:06;100947.72;;;6.20;97.43
61757;BME280;57225;61.460;24.060;2023-04-21T00:14:50;100957.31;;;6.23;96.83
61757;BME280;57225;61.460;24.060;2023-04-21T00:17:35;100945.44;;;6.22;96.87
61757;BME280;57225;61.460;24.060;2023-04-21T00:20:20;100953.38;;;6.24;98.22
61757;BME280;57225;61.460;24.060;2023-04-21T00:23:06;100945.78;;;6.21;96.68
61757;BME280;57225;61.460;24.060;2023-04-21T00:25:51;100953.38;;;6.24;96.95
61757;BME280;57225;61.460;24.060;2023-04-21T00:28:36;100954.78;;;6.18;96.99
61757;BME280;57225;61.460;24.060;2023-04-21T00:31:20;100956.22;;;6.12;97.86
61757;BME280;57225;61.460;24.060;2023-04-21T00:34:05;100945.13;;;6.12;97.89
61757;BME280;57225;61.460;24.060;2023-04-21T00:36:49;100944.13;;;6.04;97.54
61757;BME280;57225;61.460;24.060;2023-04-21T00:39:34;100954.38;;;6.03;98.33
61757;BME280;57225;61.460;24.060;2023-04-21T00:42:19;100940.81;;;5.98;99.11
61757;BME280;57225;61.460;24.060;2023-04-21T00:45:04;100945.41;;;5.94;98.30
61757;BME280;57225;61.460;24.060;2023-04-21T00:47:48;100944.53;;;5.90;98.17
61757;BME280;57225;61.460;24.060;2023-04-21T00:50:33;100940.59;;;5.91;97.21
61757;BME280;57225;61.460;24.060;2023-04-21T00:53:19;100947.84;;;5.96;96.45
61757;BME280;57225;61.460;24.060;2023-04-21T00:56:05;100935.75;;;5.88;98.26
61757;BME280;57225;61.460;24.060;2023-04-21T00:58:49;100927.94;;;5.78;99.33
61757;BME280;57225;61.460;24.060;2023-04-21T01:01:34;100938.53;;;5.88;98.88
61757;BME280;57225;61.460;24.060;2023-04-21T01:04:19;100934.50;;;5.86;98.66
61757;BME280;57225;61.460;24.060;2023-04-21T01:07:04;100929.88;;;5.90;98.07
61757;BME280;57225;61.460;24.060;2023-04-21T01:09:49;100931.84;;;5.89;98.03
61757;BME280;57225;61.460;24.060;2023-04-21T01:12:41;100920.09;;;5.92;97.22
61757;BME280;57225;61.460;24.060;2023-04-21T01:15:26;100924.69;;;5.88;97.37
61757;BME280;57225;61.460;24.060;2023-04-21T01:18:14;100904.09;;;5.74;96.85
61757;BME280;57225;61.460;24.060;2023-04-21T01:21:00;100913.22;;;5.74;97.14
61757;BME280;57225;61.460;24.060;2023-04-21T01:23:45;100917.81;;;5.70;98.60
61757;BME280;57225;61.460;24.060;2023-04-21T01:26:29;100916.19;;;5.69;98.34
61757;BME280;57225;61.460;24.060;2023-04-21T01:29:15;100909.22;;;5.59;99.45
61757;BME280;57225;61.460;24.060;2023-04-21T01:32:04;100901.72;;;5.60;98.85
61757;BME280;57225;61.460;24.060;2023-04-21T01:34:49;100904.97;;;5.62;98.82
61757;BME280;57225;61.460;24.060;2023-04-21T01:37:34;100899.22;;;5.55;98.57
61757;BME280;57225;61.460;24.060;2023-04-21T01:40:18;100904.28;;;5.53;98.12
61757;BME280;57225;61.460;24.060;2023-04-21T01:43:03;100902.91;;;5.47;100.00
61757;BME280;57225;61.460;24.060;2023-04-21T01:45:49;100899.47;;;5.38;100.00
61757;BME280;57225;61.460;24.060;2023-04-21T01:48:35;100900.44;;;5.30;100.00
61757;BME280;57225;61.460;24.060;2023-04-21T01:51:21;100905.25;;;5.20;100.00
61757;BME280;57225;61.460;24.060;2023-04-21T01:54:05;100904.81;;;5.18;100.00
61757;BME280;57225;61.460;24.060;2023-04-21T01:56:50;100897.47;;;5.10;100.00
61757;BME280;57225;61.460;24.060;2023-04-21T01:59:34;100894.56;;;5.07;100.00
61757;BME280;57225;61.460;24.060;2023-04-21T02:02:19;100881.94;;;5.06;100.00
61757;BME280;57225;61.460;24.060;2023-04-21T02:05:04;100888.47;;;5.01;100.00
61757;BME280;57225;61.460;24.060;2023-04-21T02:07:48;100881.69;;;4.99;100.00
61757;BME280;57225;61.460;24.060;2023-04-21T02:10:33;100886.44;;;4.98;100.00
61757;BME280;57225;61.460;24.060;2023-04-21T02:13:17;100879.72;;;4.87;100.00
61757;BME280;57225;61.460;24.060;2023-04-21T02:16:02;100876.19;;;4.87;100.00
61757;BME280;57225;61.460;24.060;2023-04-21T02:18:46;100872.63;;;4.86;100.00
61757;BME280;57225;61.460;24.060;2023-04-21T02:21:31;100870.53;;;4.83;100.00
61757;BME280;57225;61.460;24.060;2023-04-21T02:24:16;100866.16;;;4.82;100.00
61757;BME280;57225;61.460;24.060;2023-04-21T02:27:21;100870.78;;;4.78;100.00
61757;BME280;57225;61.460;24.060;2023-04-21T02:30:06;100870.44;;;4.79;100.00
61757;BME280;57225;61.460;24.060;2023-04-21T02:32:51;100858.59;;;4.67;100.00
61757;BME280;57225;61.460;24.060;2023-04-21T02:35:35;100868.25;;;4.73;100.00
61757;BME280;57225;61.460;24.060;2023-04-21T02:38:20;100867.53;;;4.64;100.00
61757;BME280;57225;61.460;24.060;2023-04-21T02:41:04;100865.25;;;4.66;100.00
61757;BME280;57225;61.460;24.060;2023-04-21T02:43:49;100870.06;;;4.57;100.00
61757;BME280;57225;61.460;24.060;2023-04-21T02:46:33;100864.78;;;4.52;100.00
61757;BME280;57225;61.460;24.060;2023-04-21T02:49:18;100858.78;;;4.50;100.00
61757;BME280;57225;61.460;24.060;2023-04-21T02:52:02;100871.09;;;4.40;100.00
61757;BME280;57225;61.460;24.060;2023-04-21T02:54:48;100866.63;;;4.35;100.00
61757;BME280;57225;61.460;24.060;2023-04-21T02:57:32;100856.38;;;4.36;100.00
61757;BME280;57225;61.460;24.060;2023-04-21T03:00:17;100858.78;;;4.37;100.00
61757;BME280;57225;61.460;24.060;2023-04-21T03:03:02;100862.25;;;4.34;100.00
61757;BME280;57225;61.460;24.060;2023-04-21T03:05:46;100854.63;;;4.31;100.00
61757;BME280;57225;61.460;24.060;2023-04-21T03:08:31;100857.88;;;4.33;100.00
61757;BME280;57225;61.460;24.060;2023-04-21T03:11:15;100855.34;;;4.40;100.00
61757;BME280;57225;61.460;24.060;2023-04-21T03:14:00;100857.63;;;4.38;100.00
61757;BME280;57225;61.460;24.060;2023-04-21T03:16:44;100858.44;;;4.39;100.00
61757;BME280;57225;61.460;24.060;2023-04-21T03:19:30;100857.88;;;4.33;100.00
61757;BME280;57225;61.460;24.060;2023-04-21T03:22:14;100850.06;;;4.35;100.00
61757;BME280;57225;61.460;24.060;2023-04-21T03:24:59;100858.44;;;4.27;100.00
61757;BME280;57225;61.460;24.060;2023-04-21T03:27:43;100856.34;;;4.24;100.00
61757;BME280;57225;61.460;24.060;2023-04-21T03:30:28;100854.75;;;4.23;100.00
61757;BME280;57225;61.460;24.060;2023-04-21T03:33:12;100845.91;;;4.17;100.00
61757;BME280;57225;61.460;24.060;2023-04-21T03:35:57;100841.97;;;4.18;100.00
61757;BME280;57225;61.460;24.060;2023-04-21T03:38:41;100839.78;;;4.24;100.00
61757;BME280;57225;61.460;24.060;2023-04-21T03:41:25;100840.16;;;4.22;100.00
61757;BME280;57225;61.460;24.060;2023-04-21T03:44:10;100840.59;;;4.24;100.00
61757;BME280;57225;61.460;24.060;2023-04-21T03:46:54;100837.75;;;4.33;100.00
61757;BME280;57225;61.460;24.060;2023-04-21T03:49:40;100838.09;;;4.31;100.00
61757;BME280;57225;61.460;24.060;2023-04-21T03:52:24;100848.44;;;4.34;100.00
61757;BME280;57225;61.460;24.060;2023-04-21T03:55:09;100842.59;;;4.36;100.00
61757;BME280;57225;61.460;24.060;2023-04-21T03:57:54;100843.41;;;4.49;100.00
61757;BME280;57225;61.460;24.060;2023-04-21T04:00:39;100823.16;;;4.44;100.00
61757;BME280;57225;61.460;24.060;2023-04-21T04:03:23;100842.69;;;4.64;100.00
61757;BME280;57225;61.460;24.060;2023-04-21T04:06:07;100832.59;;;4.68;100.00
61757;BME280;57225;61.460;24.060;2023-04-21T04:08:52;100840.75;;;4.76;100.00
61757;BME280;57225;61.460;24.060;2023-04-21T04:11:36;100826.09;;;4.88;100.00
61757;BME280;57225;61.460;24.060;2023-04-21T04:14:21;100825.06;;;5.05;100.00
61757;BME280;57225;61.460;24.060;2023-04-21T04:17:05;100822.63;;;5.15;100.00
61757;BME280;57225;61.460;24.060;2023-04-21T04:19:50;100830.63;;;5.33;100.00
61757;BME280;57225;61.460;24.060;2023-04-21T04:22:34;100830.34;;;5.50;99.12
61757;BME280;57225;61.460;24.060;2023-04-21T04:25:18;100821.34;;;5.53;99.05
61757;BME280;57225;61.460;24.060;2023-04-21T04:28:03;100828.41;;;5.66;98.23
61757;BME280;57225;61.460;24.060;2023-04-21T04:30:48;100823.56;;;5.75;97.70
61757;BME280;57225;61.460;24.060;2023-04-21T04:33:33;100823.00;;;5.97;96.23
61757;BME280;57225;61.460;24.060;2023-04-21T04:36:18;100809.53;;;6.12;94.31
61757;BME280;57225;61.460;24.060;2023-04-21T04:39:02;100821.50;;;6.63;91.09
61757;BME280;57225;61.460;24.060;2023-04-21T04:41:47;100798.41;;;7.28;87.01
61757;BME280;57225;61.460;24.060;2023-04-21T04:44:34;100828.66;;;9.76;75.05
61757;BME280;57225;61.460;24.060;2023-04-21T04:47:21;100834.75;;;12.92;62.87
61757;BME280;57225;61.460;24.060;2023-04-21T04:50:06;100834.91;;;14.52;54.78
61757;BME280;57225;61.460;24.060;2023-04-21T04:52:50;100830.59;;;15.94;51.37
61757;BME280;57225;61.460;24.060;2023-04-21T04:55:34;100827.53;;;18.11;45.27
61757;BME280;57225;61.460;24.060;2023-04-21T04:58:19;100832.88;;;19.22;43.01
61757;BME280;57225;61.460;24.060;2023-04-21T05:01:14;100829.97;;;19.09;41.48
61757;BME280;57225;61.460;24.060;2023-04-21T05:03:59;100824.63;;;18.66;41.92
61757;BME280;57225;61.460;24.060;2023-04-21T05:06:43;100828.75;;;18.09;43.11
61757;BME280;57225;61.460;24.060;2023-04-21T05:09:28;100823.66;;;18.73;42.85
61757;BME280;57225;61.460;24.060;2023-04-21T05:12:12;100820.16;;;19.14;41.25
61757;BME280;57225;61.460;24.060;2023-04-21T05:14:56;100819.94;;;19.66;40.10
61757;BME280;57225;61.460;24.060;2023-04-21T05:17:41;100821.63;;;20.43;38.51
61757;BME280;57225;61.460;24.060;2023-04-21T05:20:26;100816.16;;;19.98;38.66
61757;BME280;57225;61.460;24.060;2023-04-21T05:23:10;100817.00;;;19.70;39.28
61757;BME280;57225;61.460;24.060;2023-04-21T05:25:55;100816.78;;;19.19;40.20
61757;BME280;57225;61.460;24.060;2023-04-21T05:28:39;100812.69;;;18.26;41.96
61757;BME280;57225;61.460;24.060;2023-04-21T05:31:24;100806.44;;;17.20;44.05
61757;BME280;57225;61.460;24.060;2023-04-21T05:34:08;100811.75;;;16.44;45.89
61757;BME280;57225;61.460;24.060;2023-04-21T05:36:53;100810.13;;;13.78;51.94
61757;BME280;57225;61.460;24.060;2023-04-21T05:39:37;100807.97;;;12.09;58.14
61757;BME280;57225;61.460;24.060;2023-04-21T05:42:23;100789.91;;;10.88;62.22
61757;BME280;57225;61.460;24.060;2023-04-21T05:45:07;100779.63;;;10.41;64.32
61757;BME280;57225;61.460;24.060;2023-04-21T05:47:52;100793.00;;;10.76;64.37
61757;BME280;57225;61.460;24.060;2023-04-21T05:50:36;100785.06;;;10.78;63.35
61757;BME280;57225;61.460;24.060;2023-04-21T05:53:21;100774.28;;;10.77;63.52
61757;BME280;57225;61.460;24.060;2023-04-21T05:56:10;100774.34;;;10.87;64.53
61757;BME280;57225;61.460;24.060;2023-04-21T05:58:55;100768.59;;;11.28;64.47
61757;BME280;57225;61.460;24.060;2023-04-21T06:01:39;100769.41;;;11.32;65.18
61757;BME280;57225;61.460;24.060;2023-04-21T06:04:24;100764.31;;;11.55;64.96
61757;BME280;57225;61.460;24.060;2023-04-21T06:07:08;100761.97;;;11.72;63.91
61757;BME280;57225;61.460;24.060;2023-04-21T06:09:55;100756.72;;;11.49;63.79
61757;BME280;57225;61.460;24.060;2023-04-21T06:12:40;100763.50;;;11.51;63.81
61757;BME280;57225;61.460;24.060;2023-04-21T06:15:25;100753.16;;;11.59;63.81
61757;BME280;57225;61.460;24.060;2023-04-21T06:18:09;100759.50;;;11.52;63.24
61757;BME280;57225;61.460;24.060;2023-04-21T06:20:54;100750.78;;;11.72;63.24
61757;BME280;57225;61.460;24.060;2023-04-21T06:23:39;100749.66;;;11.87;62.83
61757;BME280;57225;61.460;24.060;2023-04-21T06:26:24;100751.69;;;12.04;61.86
61757;BME280;57225;61.460;24.060;2023-04-21T06:29:09;100743.31;;;12.07;61.89
61757;BME280;57225;61.460;24.060;2023-04-21T06:31:53;100732.13;;;12.11;61.12
61757;BME280;57225;61.460;24.060;2023-04-21T06:34:38;100744.09;;;12.29;62.11
61757;BME280;57225;61.460;24.060;2023-04-21T06:37:22;100738.09;;;12.48;61.91
61757;BME280;57225;61.460;24.060;2023-04-21T06:40:07;100732.09;;;12.68;60.74
61757;BME280;57225;61.460;24.060;2023-04-21T06:42:52;100733.69;;;12.76;60.27
61757;BME280;57225;61.460;24.060;2023-04-21T06:45:36;100743.56;;;13.09;59.65
61757;BME280;57225;61.460;24.060;2023-04-21T06:48:24;100726.28;;;13.39;58.73
61757;BME280;57225;61.460;24.060;2023-04-21T06:51:09;100717.31;;;13.68;56.72
61757;BME280;57225;61.460;24.060;2023-04-21T06:53:53;100722.13;;;13.68;56.40
61757;BME280;57225;61.460;24.060;2023-04-21T06:56:38;100719.84;;;13.45;55.57
61757;BME280;57225;61.460;24.060;2023-04-21T06:59:23;100716.56;;;13.64;55.59
61757;BME280;57225;61.460;24.060;2023-04-21T07:02:08;100718.41;;;13.12;56.12
61757;BME280;57225;61.460;24.060;2023-04-21T07:04:53;100718.34;;;13.23;56.33
61757;BME280;57225;61.460;24.060;2023-04-21T07:07:37;100718.16;;;13.62;54.45
61757;BME280;57225;61.460;24.060;2023-04-21T07:10:22;100704.22;;;13.48;54.54
61757;BME280;57225;61.460;24.060;2023-04-21T07:13:06;100712.56;;;13.62;53.44
61757;BME280;57225;61.460;24.060;2023-04-21T07:15:51;100692.53;;;13.60;53.89
61757;BME280;57225;61.460;24.060;2023-04-21T07:18:38;100695.66;;;13.76;55.69
61757;BME280;57225;61.460;24.060;2023-04-21T07:21:23;100697.94;;;13.95;53.11
61757;BME280;57225;61.460;24.060;2023-04-21T07:24:07;100706.59;;;14.12;52.42
61757;BME280;57225;61.460;24.060;2023-04-21T07:27:23;100697.56;;;13.90;52.53
61757;BME280;57225;61.460;24.060;2023-04-21T07:30:08;100695.97;;;14.37;53.13
61757;BME280;57225;61.460;24.060;2023-04-21T07:32:54;100685.88;;;13.98;52.06
61757;BME280;57225;61.460;24.060;2023-04-21T07:35:38;100679.66;;;14.25;52.19
61757;BME280;57225;61.460;24.060;2023-04-21T07:38:23;100675.22;;;14.72;50.62
61757;BME280;57225;61.460;24.060;2023-04-21T07:41:11;100679.69;;;14.62;51.42
61757;BME280;57225;61.460;24.060;2023-04-21T07:43:55;100678.28;;;14.47;50.61
61757;BME280;57225;61.460;24.060;2023-04-21T07:46:40;100650.28;;;14.40;51.51
61757;BME280;57225;61.460;24.060;2023-04-21T07:49:24;100677.50;;;14.80;50.61
61757;BME280;57225;61.460;24.060;2023-04-21T07:52:22;100626.69;;;14.34;51.00
61757;BME280;57225;61.460;24.060;2023-04-21T07:55:07;100675.09;;;14.45;51.41
61757;BME280;57225;61.460;24.060;2023-04-21T07:57:52;100671.34;;;14.55;51.84
61757;BME280;57225;61.460;24.060;2023-04-21T08:00:36;100663.41;;;14.50;51.72
61757;BME280;57225;61.460;24.060;2023-04-21T08:03:21;100672.41;;;14.68;51.59
61757;BME280;57225;61.460;24.060;2023-04-21T08:06:05;100654.41;;;15.00;51.37
61757;BME280;57225;61.460;24.060;2023-04-21T08:08:50;100666.50;;;15.27;50.09
61757;BME280;57225;61.460;24.060;2023-04-21T08:11:34;100660.47;;;14.61;50.59
61757;BME280;57225;61.460;24.060;2023-04-21T08:14:20;100658.56;;;14.54;51.07
61757;BME280;57225;61.460;24.060;2023-04-21T08:17:04;100663.94;;;14.38;51.37
61757;BME280;57225;61.460;24.060;2023-04-21T08:19:49;100661.13;;;14.38;52.04
61757;BME280;57225;61.460;24.060;2023-04-21T08:22:34;100658.94;;;14.90;50.53
61757;BME280;57225;61.460;24.060;2023-04-21T08:25:21;100649.09;;;14.75;50.44
61757;BME280;57225;61.460;24.060;2023-04-21T08:28:05;100645.53;;;15.05;49.42
61757;BME280;57225;61.460;24.060;2023-04-21T08:30:50;100646.69;;;14.39;49.52
61757;BME280;57225;61.460;24.060;2023-04-21T08:33:34;100661.47;;;14.43;50.59
61757;BME280;57225;61.460;24.060;2023-04-21T08:36:19;100648.47;;;14.60;50.60
61757;BME280;57225;61.460;24.060;2023-04-21T08:39:04;100650.38;;;15.01;50.05
61757;BME280;57225;61.460;24.060;2023-04-21T08:41:49;100643.19;;;15.00;49.55
61757;BME280;57225;61.460;24.060;2023-04-21T08:44:34;100643.84;;;14.43;50.16
61757;BME280;57225;61.460;24.060;2023-04-21T08:47:19;100659.25;;;14.62;49.12
61757;BME280;57225;61.460;24.060;2023-04-21T08:50:12;100652.19;;;14.50;49.72
61757;BME280;57225;61.460;24.060;2023-04-21T08:52:57;100642.94;;;14.53;49.56
61757;BME280;57225;61.460;24.060;2023-04-21T08:55:42;100637.88;;;14.75;49.60
61757;BME280;57225;61.460;24.060;2023-04-21T08:58:27;100643.47;;;14.78;48.79
61757;BME280;57225;61.460;24.060;2023-04-21T09:01:11;100644.97;;;14.53;48.53
61757;BME280;57225;61.460;24.060;2023-04-21T09:04:15;100631.50;;;15.05;49.20
61757;BME280;57225;61.460;24.060;2023-04-21T09:07:00;100629.53;;;15.02;47.53
61757;BME280;57225;61.460;24.060;2023-04-21T09:09:55;100634.66;;;15.07;47.64
61757;BME280;57225;61.460;24.060;2023-04-21T09:12:40;100623.13;;;15.58;46.98
61757;BME280;57225;61.460;24.060;2023-04-21T09:15:24;100630.72;;;15.31;46.66
61757;BME280;57225;61.460;24.060;2023-04-21T09:18:20;100631.41;;;15.39;46.40
61757;BME280;57225;61.460;24.060;2023-04-21T09:21:12;100611.16;;;15.51;45.44
61757;BME280;57225;61.460;24.060;2023-04-21T09:24:03;100619.69;;;15.74;44.19
61757;BME280;57225;61.460;24.060;2023-04-21T09:27:10;100616.22;;;15.63;44.16
61757;BME280;57225;61.460;24.060;2023-04-21T09:30:05;100612.16;;;15.91;44.09
61757;BME280;57225;61.460;24.060;2023-04-21T09:32:55;100613.66;;;15.45;44.85
61757;BME280;57225;61.460;24.060;2023-04-21T09:35:40;100606.34;;;15.24;45.95
61757;BME280;57225;61.460;24.060;2023-04-21T09:38:25;100619.94;;;15.56;45.82
61757;BME280;57225;61.460;24.060;2023-04-21T09:41:09;100610.22;;;16.11;45.11
61757;BME280;57225;61.460;24.060;2023-04-21T09:43:54;100605.31;;;16.15;44.64
61757;BME280;57225;61.460;24.060;2023-04-21T09:46:41;100612.41;;;15.77;45.85
61757;BME280;57225;61.460;24.060;2023-04-21T09:49:29;100607.03;;;16.09;45.39
61757;BME280;57225;61.460;24.060;2023-04-21T09:52:15;100604.00;;;16.20;45.19
61757;BME280;57225;61.460;24.060;2023-04-21T09:55:00;100602.59;;;16.51;43.92
61757;BME280;57225;61.460;24.060;2023-04-21T09:57:48;100602.63;;;16.08;44.73
61757;BME280;57225;61.460;24.060;2023-04-21T10:00:34;100590.03;;;16.16;44.99
61757;BME280;57225;61.460;24.060;2023-04-21T10:03:26;100589.63;;;16.37;45.14
61757;BME280;57225;61.460;24.060;2023-04-21T10:06:11;100586.69;;;16.64;44.18
61757;BME280;57225;61.460;24.060;2023-04-21T10:08:56;100585.19;;;16.60;44.30
61757;BME280;57225;61.460;24.060;2023-04-21T10:11:41;100597.97;;;16.21;44.22
61757;BME280;57225;61.460;24.060;2023-04-21T10:14:26;100584.13;;;16.30;44.79
61757;BME280;57225;61.460;24.060;2023-04-21T10:17:11;100583.69;;;15.65;46.32
61757;BME280;57225;61.460;24.060;2023-04-21T10:19:58;100582.75;;;15.45;45.38
61757;BME280;57225;61.460;24.060;2023-04-21T10:22:42;100583.69;;;15.65;46.06
61757;BME280;57225;61.460;24.060;2023-04-21T10:25:28;100578.63;;;15.80;46.23
61757;BME280;57225;61.460;24.060;2023-04-21T10:28:17;100570.00;;;16.54;44.68
61757;BME280;57225;61.460;24.060;2023-04-21T10:31:24;100575.69;;;16.30;44.06
61757;BME280;57225;61.460;24.060;2023-04-21T10:34:12;100581.78;;;16.05;46.31
61757;BME280;57225;61.460;24.060;2023-04-21T10:39:44;100579.94;;;16.62;43.54
61757;BME280;57225;61.460;24.060;2023-04-21T10:42:33;100572.00;;;17.12;43.78
61757;BME280;57225;61.460;24.060;2023-04-21T10:45:18;100576.72;;;16.99;42.63
61757;BME280;57225;61.460;24.060;2023-04-21T10:48:12;100564.72;;;16.95;43.89
61757;BME280;57225;61.460;24.060;2023-04-21T10:50:57;100571.91;;;17.16;43.56
61757;BME280;57225;61.460;24.060;2023-04-21T10:53:44;100555.22;;;17.41;42.71
61757;BME280;57225;61.460;24.060;2023-04-21T10:56:29;100554.38;;;17.77;42.20
61757;BME280;57225;61.460;24.060;2023-04-21T10:59:14;100560.13;;;17.53;41.95
61757;BME280;57225;61.460;24.060;2023-04-21T11:02:11;100551.31;;;17.35;43.22
61757;BME280;57225;61.460;24.060;2023-04-21T11:04:58;100544.56;;;17.49;43.37
61757;BME280;57225;61.460;24.060;2023-04-21T11:07:45;100538.66;;;17.59;41.65
61757;BME280;57225;61.460;24.060;2023-04-21T11:10:40;100519.63;;;17.80;41.99
61757;BME280;57225;61.460;24.060;2023-04-21T11:13:26;100542.78;;;17.22;42.68
61757;BME280;57225;61.460;24.060;2023-04-21T11:16:16;100540.22;;;17.28;43.23
61757;BME280;57225;61.460;24.060;2023-04-21T11:19:01;100533.41;;;17.09;43.16
61757;BME280;57225;61.460;24.060;2023-04-21T11:21:47;100526.53;;;16.94;45.16
61757;BME280;57225;61.460;24.060;2023-04-21T11:24:32;100522.63;;;17.24;43.13
61757;BME280;57225;61.460;24.060;2023-04-21T11:27:20;100511.72;;;17.75;42.75
61757;BME280;57225;61.460;24.060;2023-04-21T11:30:05;100519.03;;;18.17;41.81
61757;BME280;57225;61.460;24.060;2023-04-21T11:32:54;100520.38;;;16.99;43.07
61757;BME280;57225;61.460;24.060;2023-04-21T11:35:39;100515.28;;;17.10;42.92
61757;BME280;57225;61.460;24.060;2023-04-21T11:38:24;100502.38;;;17.29;43.29
61757;BME280;57225;61.460;24.060;2023-04-21T11:41:09;100504.03;;;17.59;42.79
61757;BME280;57225;61.460;24.060;2023-04-21T11:43:53;100492.41;;;17.08;42.87
61757;BME280;57225;61.460;24.060;2023-04-21T11:46:44;100501.31;;;17.39;43.74
61757;BME280;57225;61.460;24.060;2023-04-21T11:49:29;100491.44;;;17.47;41.94
61757;BME280;57225;61.460;24.060;2023-04-21T11:52:25;100501.56;;;17.28;41.69
61757;BME280;57225;61.460;24.060;2023-04-21T11:55:12;100479.84;;;17.61;42.11
61757;BME280;57225;61.460;24.060;2023-04-21T11:58:00;100481.94;;;18.02;40.63
61757;BME280;57225;61.460;24.060;2023-04-21T12:00:46;100483.34;;;17.82;40.08
61757;BME280;57225;61.460;24.060;2023-04-21T12:03:31;100483.63;;;17.06;41.50
61757;BME280;57225;61.460;24.060;2023-04-21T12:06:21;100475.31;;;17.48;42.56
61757;BME280;57225;61.460;24.060;2023-04-21T12:09:06;100471.66;;;17.96;41.14
61757;BME280;57225;61.460;24.060;2023-04-21T12:11:55;100472.03;;;18.11;39.96
61757;BME280;57225;61.460;24.060;2023-04-21T12:14:43;100469.59;;;18.13;40.92
61757;BME280;57225;61.460;24.060;2023-04-21T12:17:37;100458.78;;;18.78;38.83
61757;BME280;57225;61.460;24.060;2023-04-21T12:20:24;100459.34;;;18.98;39.82
61757;BME280;57225;61.460;24.060;2023-04-21T12:23:12;100460.25;;;19.08;38.31
61757;BME280;57225;61.460;24.060;2023-04-21T12:25:57;100451.88;;;18.66;38.67
61757;BME280;57225;61.460;24.060;2023-04-21T12:28:41;100451.56;;;18.35;40.04
61757;BME280;57225;61.460;24.060;2023-04-21T12:31:26;100444.75;;;18.07;40.22
61757;BME280;57225;61.460;24.060;2023-04-21T12:34:10;100431.59;;;17.88;40.79
61757;BME280;57225;61.460;24.060;2023-04-21T12:36:55;100431.16;;;18.02;39.70
61757;BME280;57225;61.460;24.060;2023-04-21T12:39:39;100436.31;;;17.91;39.51
61757;BME280;57225;61.460;24.060;2023-04-21T12:42:23;100427.22;;;17.71;40.74
61757;BME280;57225;61.460;24.060;2023-04-21T12:45:08;100422.63;;;18.06;39.96
61757;BME280;57225;61.460;24.060;2023-04-21T12:47:52;100423.13;;;18.30;40.20
61757;BME280;57225;61.460;24.060;2023-04-21T12:50:37;100420.88;;;18.37;39.65
61757;BME280;57225;61.460;24.060;2023-04-21T12:53:22;100395.53;;;17.67;39.86
61757;BME280;57225;61.460;24.060;2023-04-21T12:56:06;100410.50;;;17.93;39.84
61757;BME280;57225;61.460;24.060;2023-04-21T12:58:51;100409.28;;;17.49;41.18
61757;BME280;57225;61.460;24.060;2023-04-21T13:01:37;100406.59;;;17.58;41.28
61757;BME280;57225;61.460;24.060;2023-04-21T13:04:22;100398.16;;;18.28;40.84
61757;BME280;57225;61.460;24.060;2023-04-21T13:07:07;100399.91;;;18.51;39.20
61757;BME280;57225;61.460;24.060;2023-04-21T13:09:54;100395.63;;;17.63;40.38
61757;BME280;57225;61.460;24.060;2023-04-21T13:12:40;100383.25;;;17.28;40.67
61757;BME280;57225;61.460;24.060;2023-04-21T13:15:27;100388.66;;;17.07;42.10
61757;BME280;57225;61.460;24.060;2023-04-21T13:18:13;100380.91;;;16.78;42.15
61757;BME280;57225;61.460;24.060;2023-04-21T13:21:02;100384.34;;;17.47;41.66
61757;BME280;57225;61.460;24.060;2023-04-21T13:23:47;100383.25;;;17.74;40.74
61757;BME280;57225;61.460;24.060;2023-04-21T13:26:32;100383.22;;;17.61;41.67
61757;BME280;57225;61.460;24.060;2023-04-21T13:29:17;100372.56;;;17.36;40.67
61757;BME280;57225;61.460;24.060;2023-04-21T13:32:03;100383.09;;;17.03;42.14
61757;BME280;57225;61.460;24.060;2023-04-21T13:34:49;100373.41;;;17.04;41.76
61757;BME280;57225;61.460;24.060;2023-04-21T13:37:34;100378.84;;;17.27;41.39
61757;BME280;57225;61.460;24.060;2023-04-21T13:40:19;100375.59;;;17.29;41.30
61757;BME280;57225;61.460;24.060;2023-04-21T13:43:04;100367.13;;;17.29;40.81
61757;BME280;57225;61.460;24.060;2023-04-21T13:45:48;100373.75;;;17.22;39.96
61757;BME280;57225;61.460;24.060;2023-04-21T13:48:35;100368.09;;;17.22;41.47
61757;BME280;57225;61.460;24.060;2023-04-21T13:51:19;100364.38;;;16.80;41.67
61757;BME280;57225;61.460;24.060;2023-04-21T13:54:04;100371.03;;;17.19;41.15
61757;BME280;57225;61.460;24.060;2023-04-21T13:56:48;100368.03;;;17.10;40.73
61757;BME280;57225;61.460;24.060;2023-04-21T13:59:34;100366.34;;;17.28;40.79
61757;BME280;57225;61.460;24.060;2023-04-21T14:02:19;100365.28;;;17.22;41.50
61757;BME280;57225;61.460;24.060;2023-04-21T14:05:07;100370.41;;;16.95;41.22
61757;BME280;57225;61.460;24.060;2023-04-21T14:07:51;100354.53;;;16.53;42.39
61757;BME280;57225;61.460;24.060;2023-04-21T14:10:35;100358.19;;;16.85;41.77
61757;BME280;57225;61.460;24.060;2023-04-21T14:13:20;100361.66;;;16.57;42.33
61757;BME280;57225;61.460;24.060;2023-04-21T14:16:05;100357.22;;;16.60;42.27
61757;BME280;57225;61.460;24.060;2023-04-21T14:18:50;100351.34;;;16.86;41.91